| Date | Time | Temp. (oF) | Dew Point (oF) | Rel. Hum. (%) | Press. (in.) | Wind Dir. (deg.) | Wind Speed (mph) | Hourly Rainfall (i n.) |
|
|---|---|---|---|---|---|---|---|---|---|
| 1 | 05/20 | 24:00 | 64 | 56 | 77 | 30.18 | 350 | 1 | 0.00 |
| 2 | 05/19 | 23:00 | 64 | 59 | 84 | 30.16 | 20 | 6 | 0.00 |
| 3 | 05/19 | 22:00 | 64 | 58 | 81 | 30.12 | 300 | 0 | 0.00 |
| 4 | 05/19 | 21:00 | 65 | 57 | 77 | 30.06 | 300 | 0 | 0.00 |
| 5 | 05/19 | 20:00 | 67 | 56 | 70 | 30.05 | 300 | 0 | 0.00 |
| 6 | 05/19 | 19:00 | 69 | 58 | 69 | 30.04 | 10 | 2 | 0.00 |
| 7 | 05/19 | 18:00 | 70 | 59 | 69 | 30.04 | 310 | 2 | 0.00 |
| 8 | 05/19 | 17:00 | 70 | 58 | 67 | 30.05 | 330 | 2 | 0.00 |
| 9 | 05/19 | 16:00 | 70 | 62 | 78 | 30.05 | 290 | 2 | 0.00 |
| 10 | 05/19 | 15:00 | 70 | 64 | 84 | 30.07 | 360 | 1 | 0.00 |
| 11 | 05/19 | 14:00 | 69 | 62 | 79 | 30.07 | 280 | 0 | 0.03 |
| 12 | 05/19 | 13:00 | 73 | 62 | 71 | 30.08 | 310 | 4 | 0.00 |
| 13 | 05/19 | 12:00 | 71 | 64 | 81 | 30.09 | 50 | 2 | 0.00 |
| 14 | 05/19 | 11:00 | 69 | 64 | 85 | 30.11 | 40 | 0 | 0.00 |
| 15 | 05/19 | 10:00 | 67 | 64 | 91 | 30.11 | 260 | 1 | 0.00 |
| 16 | 05/19 | 09:00 | 65 | 62 | 92 | 30.12 | 150 | 0 | 0.00 |
| 17 | 05/19 | 08:00 | 65 | 62 | 92 | 30.11 | 150 | 0 | 0.00 |
| 18 | 05/19 | 07:00 | 64 | 61 | 92 | 30.18 | 150 | 0 | 0.01 |
| 19 | 05/19 | 06:00 | 64 | 61 | 91 | 30.17 | 150 | 0 | 0.00 |
| 20 | 05/19 | 05:00 | 64 | 61 | 91 | 30.17 | 150 | 0 | 0.00 |
| 21 | 05/19 | 04:00 | 64 | 61 | 90 | 30.17 | 150 | 0 | 0.00 |
| 22 | 05/19 | 03:00 | 65 | 61 | 90 | 30.18 | 150 | 0 | 0.00 |
| 23 | 05/19 | 02:00 | 65 | 61 | 89 | 30.19 | 150 | 0 | 0.00 |
| 24 | 05/19 | 01:00 | 66 | 62 | 89 | 30.21 | 150 | 0 | 0.01 |